sensor_id;sensor_type;location;lat;lon;timestamp;P1;durP1;ratioP1;P2;durP2;ratioP2
39896;SDS011;25567;48.276;14.242;2023-04-25T00:01:00;7.88;;;3.28;;
39896;SDS011;25567;48.276;14.242;2023-04-25T00:03:28;11.90;;;2.85;;
39896;SDS011;25567;48.276;14.242;2023-04-25T00:05:56;7.65;;;3.35;;
39896;SDS011;25567;48.276;14.242;2023-04-25T00:08:23;5.18;;;3.03;;
39896;SDS011;25567;48.276;14.242;2023-04-25T00:10:49;15.10;;;3.30;;
39896;SDS011;25567;48.276;14.242;2023-04-25T00:13:16;8.35;;;2.63;;
39896;SDS011;25567;48.276;14.242;2023-04-25T00:15:43;9.13;;;3.80;;
39896;SDS011;25567;48.276;14.242;2023-04-25T00:18:10;8.07;;;3.25;;
39896;SDS011;25567;48.276;14.242;2023-04-25T00:20:37;4.88;;;2.78;;
39896;SDS011;25567;48.276;14.242;2023-04-25T00:23:04;4.53;;;2.92;;
39896;SDS011;25567;48.276;14.242;2023-04-25T00:25:31;8.85;;;2.72;;
39896;SDS011;25567;48.276;14.242;2023-04-25T00:27:58;4.88;;;3.08;;
39896;SDS011;25567;48.276;14.242;2023-04-25T00:30:24;6.00;;;2.72;;
39896;SDS011;25567;48.276;14.242;2023-04-25T00:32:51;4.63;;;3.17;;
39896;SDS011;25567;48.276;14.242;2023-04-25T00:35:17;4.85;;;2.92;;
39896;SDS011;25567;48.276;14.242;2023-04-25T00:37:44;5.25;;;2.63;;
39896;SDS011;25567;48.276;14.242;2023-04-25T00:40:11;5.47;;;3.00;;
39896;SDS011;25567;48.276;14.242;2023-04-25T00:42:38;9.32;;;2.95;;
39896;SDS011;25567;48.276;14.242;2023-04-25T00:45:05;9.43;;;3.22;;
39896;SDS011;25567;48.276;14.242;2023-04-25T00:47:33;9.25;;;3.28;;
39896;SDS011;25567;48.276;14.242;2023-04-25T00:50:00;7.18;;;3.45;;
39896;SDS011;25567;48.276;14.242;2023-04-25T00:52:27;6.07;;;3.38;;
39896;SDS011;25567;48.276;14.242;2023-04-25T00:54:54;9.15;;;3.42;;
39896;SDS011;25567;48.276;14.242;2023-04-25T00:57:20;4.60;;;2.92;;
39896;SDS011;25567;48.276;14.242;2023-04-25T00:59:47;7.90;;;2.63;;
39896;SDS011;25567;48.276;14.242;2023-04-25T01:02:14;8.13;;;2.45;;
39896;SDS011;25567;48.276;14.242;2023-04-25T01:04:40;8.73;;;2.88;;
39896;SDS011;25567;48.276;14.242;2023-04-25T01:07:09;6.93;;;2.63;;
39896;SDS011;25567;48.276;14.242;2023-04-25T01:09:36;8.73;;;3.10;;
39896;SDS011;25567;48.276;14.242;2023-04-25T01:12:02;5.68;;;3.05;;
39896;SDS011;25567;48.276;14.242;2023-04-25T01:14:29;5.60;;;3.35;;
39896;SDS011;25567;48.276;14.242;2023-04-25T01:16:56;13.32;;;3.40;;
39896;SDS011;25567;48.276;14.242;2023-04-25T01:19:23;5.40;;;2.35;;
39896;SDS011;25567;48.276;14.242;2023-04-25T01:21:50;5.80;;;3.25;;
39896;SDS011;25567;48.276;14.242;2023-04-25T01:24:17;6.32;;;3.08;;
39896;SDS011;25567;48.276;14.242;2023-04-25T01:26:43;8.93;;;4.38;;
39896;SDS011;25567;48.276;14.242;2023-04-25T01:29:16;7.07;;;3.17;;
39896;SDS011;25567;48.276;14.242;2023-04-25T01:31:43;4.85;;;2.67;;
39896;SDS011;25567;48.276;14.242;2023-04-25T01:34:11;5.00;;;2.95;;
39896;SDS011;25567;48.276;14.242;2023-04-25T01:36:37;4.68;;;2.72;;
39896;SDS011;25567;48.276;14.242;2023-04-25T01:39:04;7.07;;;2.67;;
39896;SDS011;25567;48.276;14.242;2023-04-25T01:41:30;5.80;;;3.08;;
39896;SDS011;25567;48.276;14.242;2023-04-25T01:43:57;6.00;;;3.00;;
39896;SDS011;25567;48.276;14.242;2023-04-25T01:46:24;6.28;;;2.70;;
39896;SDS011;25567;48.276;14.242;2023-04-25T01:48:50;6.15;;;3.00;;
39896;SDS011;25567;48.276;14.242;2023-04-25T01:51:17;5.47;;;2.60;;
39896;SDS011;25567;48.276;14.242;2023-04-25T01:53:43;7.65;;;3.45;;
39896;SDS011;25567;48.276;14.242;2023-04-25T01:56:10;5.32;;;2.70;;
39896;SDS011;25567;48.276;14.242;2023-04-25T01:58:37;6.20;;;3.42;;
39896;SDS011;25567;48.276;14.242;2023-04-25T02:01:03;5.97;;;3.33;;
39896;SDS011;25567;48.276;14.242;2023-04-25T02:03:31;10.65;;;3.42;;
39896;SDS011;25567;48.276;14.242;2023-04-25T02:05:58;5.95;;;3.33;;
39896;SDS011;25567;48.276;14.242;2023-04-25T02:08:24;6.28;;;2.97;;
39896;SDS011;25567;48.276;14.242;2023-04-25T02:10:52;7.20;;;2.95;;
39896;SDS011;25567;48.276;14.242;2023-04-25T02:13:18;4.63;;;2.75;;
39896;SDS011;25567;48.276;14.242;2023-04-25T02:15:45;7.82;;;3.47;;
39896;SDS011;25567;48.276;14.242;2023-04-25T02:18:12;3.83;;;2.83;;
39896;SDS011;25567;48.276;14.242;2023-04-25T02:20:38;6.43;;;3.50;;
39896;SDS011;25567;48.276;14.242;2023-04-25T02:23:05;8.50;;;3.47;;
39896;SDS011;25567;48.276;14.242;2023-04-25T02:25:31;7.28;;;3.47;;
39896;SDS011;25567;48.276;14.242;2023-04-25T02:27:58;7.15;;;3.60;;
39896;SDS011;25567;48.276;14.242;2023-04-25T02:30:24;5.45;;;3.58;;
39896;SDS011;25567;48.276;14.242;2023-04-25T02:32:51;8.23;;;3.25;;
39896;SDS011;25567;48.276;14.242;2023-04-25T02:35:17;5.47;;;2.83;;
39896;SDS011;25567;48.276;14.242;2023-04-25T02:37:44;7.63;;;3.25;;
39896;SDS011;25567;48.276;14.242;2023-04-25T02:40:11;5.80;;;3.10;;
39896;SDS011;25567;48.276;14.242;2023-04-25T02:42:37;7.07;;;3.22;;
39896;SDS011;25567;48.276;14.242;2023-04-25T02:45:04;6.50;;;3.13;;
39896;SDS011;25567;48.276;14.242;2023-04-25T02:47:31;7.20;;;4.20;;
39896;SDS011;25567;48.276;14.242;2023-04-25T02:49:58;6.97;;;3.70;;
39896;SDS011;25567;48.276;14.242;2023-04-25T02:52:24;6.05;;;3.22;;
39896;SDS011;25567;48.276;14.242;2023-04-25T02:54:51;8.18;;;4.25;;
39896;SDS011;25567;48.276;14.242;2023-04-25T02:57:18;8.13;;;3.25;;
39896;SDS011;25567;48.276;14.242;2023-04-25T02:59:45;6.03;;;2.67;;
39896;SDS011;25567;48.276;14.242;2023-04-25T03:02:11;5.32;;;3.33;;
39896;SDS011;25567;48.276;14.242;2023-04-25T03:04:38;6.53;;;3.17;;
39896;SDS011;25567;48.276;14.242;2023-04-25T03:07:05;6.72;;;2.97;;
39896;SDS011;25567;48.276;14.242;2023-04-25T03:09:31;6.47;;;3.20;;
39896;SDS011;25567;48.276;14.242;2023-04-25T03:11:58;6.10;;;3.47;;
39896;SDS011;25567;48.276;14.242;2023-04-25T03:14:24;6.25;;;3.35;;
39896;SDS011;25567;48.276;14.242;2023-04-25T03:16:51;5.28;;;3.20;;
39896;SDS011;25567;48.276;14.242;2023-04-25T03:19:18;5.22;;;3.33;;
39896;SDS011;25567;48.276;14.242;2023-04-25T03:21:44;6.38;;;3.40;;
39896;SDS011;25567;48.276;14.242;2023-04-25T03:24:11;6.72;;;3.22;;
39896;SDS011;25567;48.276;14.242;2023-04-25T03:26:38;5.35;;;2.65;;
39896;SDS011;25567;48.276;14.242;2023-04-25T03:29:04;8.00;;;3.38;;
39896;SDS011;25567;48.276;14.242;2023-04-25T03:31:31;4.72;;;3.10;;
39896;SDS011;25567;48.276;14.242;2023-04-25T03:33:57;7.28;;;3.05;;
39896;SDS011;25567;48.276;14.242;2023-04-25T03:36:24;5.40;;;2.58;;
39896;SDS011;25567;48.276;14.242;2023-04-25T03:38:50;4.22;;;2.58;;
39896;SDS011;25567;48.276;14.242;2023-04-25T03:41:17;4.97;;;3.30;;
39896;SDS011;25567;48.276;14.242;2023-04-25T03:43:43;7.53;;;2.90;;
39896;SDS011;25567;48.276;14.242;2023-04-25T03:46:10;9.40;;;2.80;;
39896;SDS011;25567;48.276;14.242;2023-04-25T03:48:36;4.53;;;2.90;;
39896;SDS011;25567;48.276;14.242;2023-04-25T03:51:03;6.55;;;3.42;;
39896;SDS011;25567;48.276;14.242;2023-04-25T03:53:29;5.78;;;3.00;;
39896;SDS011;25567;48.276;14.242;2023-04-25T03:55:57;9.02;;;2.92;;
39896;SDS011;25567;48.276;14.242;2023-04-25T03:58:24;5.47;;;3.15;;
39896;SDS011;25567;48.276;14.242;2023-04-25T04:00:50;9.07;;;2.78;;
39896;SDS011;25567;48.276;14.242;2023-04-25T04:03:17;3.47;;;2.30;;
39896;SDS011;25567;48.276;14.242;2023-04-25T04:05:44;5.57;;;2.70;;
39896;SDS011;25567;48.276;14.242;2023-04-25T04:08:11;5.35;;;2.65;;
39896;SDS011;25567;48.276;14.242;2023-04-25T04:10:38;7.32;;;3.10;;
39896;SDS011;25567;48.276;14.242;2023-04-25T04:13:04;7.28;;;3.88;;
39896;SDS011;25567;48.276;14.242;2023-04-25T04:15:31;7.97;;;3.67;;
39896;SDS011;25567;48.276;14.242;2023-04-25T04:17:59;9.70;;;4.28;;
39896;SDS011;25567;48.276;14.242;2023-04-25T04:20:29;11.13;;;5.57;;
39896;SDS011;25567;48.276;14.242;2023-04-25T04:22:56;12.95;;;5.28;;
39896;SDS011;25567;48.276;14.242;2023-04-25T04:25:23;20.95;;;4.78;;
39896;SDS011;25567;48.276;14.242;2023-04-25T04:27:50;12.98;;;5.30;;
39896;SDS011;25567;48.276;14.242;2023-04-25T04:30:24;10.50;;;5.38;;
39896;SDS011;25567;48.276;14.242;2023-04-25T04:32:51;15.60;;;5.78;;
39896;SDS011;25567;48.276;14.242;2023-04-25T04:35:18;14.85;;;7.00;;
39896;SDS011;25567;48.276;14.242;2023-04-25T04:37:45;12.10;;;5.40;;
39896;SDS011;25567;48.276;14.242;2023-04-25T04:40:16;9.98;;;5.35;;
39896;SDS011;25567;48.276;14.242;2023-04-25T04:42:44;9.52;;;5.28;;
39896;SDS011;25567;48.276;14.242;2023-04-25T04:45:13;10.30;;;4.88;;
39896;SDS011;25567;48.276;14.242;2023-04-25T04:47:40;13.35;;;5.10;;
39896;SDS011;25567;48.276;14.242;2023-04-25T04:50:07;11.95;;;4.82;;
39896;SDS011;25567;48.276;14.242;2023-04-25T04:52:37;13.38;;;5.75;;
39896;SDS011;25567;48.276;14.242;2023-04-25T04:55:04;7.97;;;4.72;;
39896;SDS011;25567;48.276;14.242;2023-04-25T04:57:32;8.35;;;5.22;;
39896;SDS011;25567;48.276;14.242;2023-04-25T04:59:59;12.13;;;5.28;;
39896;SDS011;25567;48.276;14.242;2023-04-25T05:02:32;10.80;;;5.38;;
39896;SDS011;25567;48.276;14.242;2023-04-25T05:04:59;10.85;;;5.63;;
39896;SDS011;25567;48.276;14.242;2023-04-25T05:07:25;11.35;;;5.63;;
39896;SDS011;25567;48.276;14.242;2023-04-25T05:09:53;10.77;;;6.03;;
39896;SDS011;25567;48.276;14.242;2023-04-25T05:12:19;10.30;;;5.63;;
39896;SDS011;25567;48.276;14.242;2023-04-25T05:14:46;10.85;;;5.45;;
39896;SDS011;25567;48.276;14.242;2023-04-25T05:17:12;12.15;;;5.72;;
39896;SDS011;25567;48.276;14.242;2023-04-25T05:19:39;9.77;;;5.22;;
39896;SDS011;25567;48.276;14.242;2023-04-25T05:22:06;9.75;;;5.30;;
39896;SDS011;25567;48.276;14.242;2023-04-25T05:24:32;11.20;;;5.18;;
39896;SDS011;25567;48.276;14.242;2023-04-25T05:26:59;10.95;;;4.70;;
39896;SDS011;25567;48.276;14.242;2023-04-25T05:29:25;10.80;;;5.00;;
39896;SDS011;25567;48.276;14.242;2023-04-25T05:31:52;11.00;;;5.63;;
39896;SDS011;25567;48.276;14.242;2023-04-25T05:34:19;8.27;;;4.55;;
39896;SDS011;25567;48.276;14.242;2023-04-25T05:36:45;7.78;;;4.70;;
39896;SDS011;25567;48.276;14.242;2023-04-25T05:39:15;8.50;;;5.15;;
39896;SDS011;25567;48.276;14.242;2023-04-25T05:41:43;15.18;;;5.25;;
39896;SDS011;25567;48.276;14.242;2023-04-25T05:44:09;10.10;;;5.43;;
39896;SDS011;25567;48.276;14.242;2023-04-25T05:46:36;12.77;;;5.05;;
39896;SDS011;25567;48.276;14.242;2023-04-25T05:49:02;9.77;;;5.03;;
39896;SDS011;25567;48.276;14.242;2023-04-25T05:51:29;11.07;;;4.88;;
39896;SDS011;25567;48.276;14.242;2023-04-25T05:53:56;7.82;;;4.47;;
39896;SDS011;25567;48.276;14.242;2023-04-25T05:56:22;8.10;;;4.72;;
39896;SDS011;25567;48.276;14.242;2023-04-25T05:58:49;10.38;;;4.43;;
39896;SDS011;25567;48.276;14.242;2023-04-25T06:01:15;12.68;;;5.35;;
39896;SDS011;25567;48.276;14.242;2023-04-25T06:03:42;8.32;;;4.57;;
39896;SDS011;25567;48.276;14.242;2023-04-25T06:06:09;8.27;;;4.70;;
39896;SDS011;25567;48.276;14.242;2023-04-25T06:08:40;10.68;;;5.00;;
39896;SDS011;25567;48.276;14.242;2023-04-25T06:11:06;8.48;;;4.80;;
39896;SDS011;25567;48.276;14.242;2023-04-25T06:13:33;13.65;;;4.97;;
39896;SDS011;25567;48.276;14.242;2023-04-25T06:16:02;8.40;;;5.05;;
39896;SDS011;25567;48.276;14.242;2023-04-25T06:18:28;9.35;;;4.47;;
39896;SDS011;25567;48.276;14.242;2023-04-25T06:20:55;11.45;;;5.13;;
39896;SDS011;25567;48.276;14.242;2023-04-25T06:23:21;7.05;;;3.97;;
39896;SDS011;25567;48.276;14.242;2023-04-25T06:25:48;7.45;;;4.25;;
39896;SDS011;25567;48.276;14.242;2023-04-25T06:28:14;8.00;;;4.60;;
39896;SDS011;25567;48.276;14.242;2023-04-25T06:30:41;8.77;;;4.20;;
39896;SDS011;25567;48.276;14.242;2023-04-25T06:33:07;7.40;;;3.78;;
39896;SDS011;25567;48.276;14.242;2023-04-25T06:35:35;7.25;;;3.38;;
39896;SDS011;25567;48.276;14.242;2023-04-25T06:38:01;7.65;;;3.42;;
39896;SDS011;25567;48.276;14.242;2023-04-25T06:40:28;6.38;;;3.42;;
39896;SDS011;25567;48.276;14.242;2023-04-25T06:42:54;5.63;;;3.40;;
39896;SDS011;25567;48.276;14.242;2023-04-25T06:45:21;5.47;;;3.33;;
39896;SDS011;25567;48.276;14.242;2023-04-25T06:47:47;9.70;;;3.05;;
39896;SDS011;25567;48.276;14.242;2023-04-25T06:50:14;6.00;;;3.30;;
39896;SDS011;25567;48.276;14.242;2023-04-25T06:52:41;7.55;;;3.47;;
39896;SDS011;25567;48.276;14.242;2023-04-25T06:55:07;9.90;;;3.28;;
39896;SDS011;25567;48.276;14.242;2023-04-25T06:57:34;7.50;;;3.38;;
39896;SDS011;25567;48.276;14.242;2023-04-25T07:00:00;6.68;;;3.30;;
39896;SDS011;25567;48.276;14.242;2023-04-25T07:02:27;10.05;;;3.60;;
39896;SDS011;25567;48.276;14.242;2023-04-25T07:04:54;5.15;;;2.67;;
39896;SDS011;25567;48.276;14.242;2023-04-25T07:07:26;8.43;;;3.38;;
39896;SDS011;25567;48.276;14.242;2023-04-25T07:09:52;9.82;;;3.50;;
39896;SDS011;25567;48.276;14.242;2023-04-25T07:12:19;7.18;;;3.47;;
39896;SDS011;25567;48.276;14.242;2023-04-25T07:14:45;6.80;;;3.47;;
39896;SDS011;25567;48.276;14.242;2023-04-25T07:17:12;6.78;;;3.50;;
39896;SDS011;25567;48.276;14.242;2023-04-25T07:19:38;5.95;;;3.35;;
39896;SDS011;25567;48.276;14.242;2023-04-25T07:22:06;5.20;;;3.40;;
39896;SDS011;25567;48.276;14.242;2023-04-25T07:24:33;6.63;;;3.92;;
39896;SDS011;25567;48.276;14.242;2023-04-25T07:26:59;9.07;;;3.50;;
39896;SDS011;25567;48.276;14.242;2023-04-25T07:29:27;35.55;;;9.20;;
39896;SDS011;25567;48.276;14.242;2023-04-25T07:31:53;13.38;;;4.18;;
39896;SDS011;25567;48.276;14.242;2023-04-25T07:34:20;7.35;;;4.38;;
39896;SDS011;25567;48.276;14.242;2023-04-25T07:36:47;6.50;;;3.80;;
39896;SDS011;25567;48.276;14.242;2023-04-25T07:39:13;9.98;;;3.38;;
39896;SDS011;25567;48.276;14.242;2023-04-25T07:41:40;6.35;;;3.83;;
39896;SDS011;25567;48.276;14.242;2023-04-25T07:44:06;14.45;;;5.07;;
39896;SDS011;25567;48.276;14.242;2023-04-25T07:46:33;8.60;;;4.40;;
39896;SDS011;25567;48.276;14.242;2023-04-25T07:48:59;9.70;;;4.13;;
39896;SDS011;25567;48.276;14.242;2023-04-25T07:51:26;10.10;;;4.32;;
39896;SDS011;25567;48.276;14.242;2023-04-25T07:53:53;11.73;;;4.63;;
39896;SDS011;25567;48.276;14.242;2023-04-25T07:56:22;12.95;;;4.32;;
39896;SDS011;25567;48.276;14.242;2023-04-25T07:58:48;7.35;;;3.63;;
39896;SDS011;25567;48.276;14.242;2023-04-25T08:01:15;6.60;;;3.78;;
39896;SDS011;25567;48.276;14.242;2023-04-25T08:03:42;8.43;;;3.75;;
39896;SDS011;25567;48.276;14.242;2023-04-25T08:06:09;6.95;;;4.10;;
39896;SDS011;25567;48.276;14.242;2023-04-25T08:08:36;8.25;;;3.58;;
39896;SDS011;25567;48.276;14.242;2023-04-25T08:11:03;5.30;;;3.33;;
39896;SDS011;25567;48.276;14.242;2023-04-25T08:13:29;6.97;;;3.38;;
39896;SDS011;25567;48.276;14.242;2023-04-25T08:15:56;9.25;;;3.67;;
39896;SDS011;25567;48.276;14.242;2023-04-25T08:18:22;8.75;;;3.25;;
39896;SDS011;25567;48.276;14.242;2023-04-25T08:20:49;6.50;;;3.63;;
39896;SDS011;25567;48.276;14.242;2023-04-25T08:23:15;5.45;;;2.97;;
39896;SDS011;25567;48.276;14.242;2023-04-25T08:25:42;8.32;;;3.25;;
39896;SDS011;25567;48.276;14.242;2023-04-25T08:28:09;7.38;;;3.75;;
39896;SDS011;25567;48.276;14.242;2023-04-25T08:30:36;6.90;;;3.10;;
39896;SDS011;25567;48.276;14.242;2023-04-25T08:33:02;13.82;;;3.15;;
39896;SDS011;25567;48.276;14.242;2023-04-25T08:35:29;8.35;;;2.80;;
39896;SDS011;25567;48.276;14.242;2023-04-25T08:37:55;5.50;;;3.22;;
39896;SDS011;25567;48.276;14.242;2023-04-25T08:40:22;7.22;;;2.95;;
39896;SDS011;25567;48.276;14.242;2023-04-25T08:42:53;12.15;;;3.60;;
39896;SDS011;25567;48.276;14.242;2023-04-25T08:45:20;6.75;;;2.80;;
39896;SDS011;25567;48.276;14.242;2023-04-25T08:47:46;5.97;;;2.80;;
39896;SDS011;25567;48.276;14.242;2023-04-25T08:50:15;7.35;;;2.90;;
39896;SDS011;25567;48.276;14.242;2023-04-25T08:52:44;5.47;;;2.90;;
39896;SDS011;25567;48.276;14.242;2023-04-25T08:55:11;4.13;;;2.70;;
39896;SDS011;25567;48.276;14.242;2023-04-25T08:57:39;8.30;;;3.20;;
39896;SDS011;25567;48.276;14.242;2023-04-25T09:00:07;5.85;;;2.90;;
39896;SDS011;25567;48.276;14.242;2023-04-25T09:02:34;6.43;;;3.20;;
39896;SDS011;25567;48.276;14.242;2023-04-25T09:05:02;12.40;;;2.70;;
39896;SDS011;25567;48.276;14.242;2023-04-25T09:07:30;7.43;;;2.95;;
39896;SDS011;25567;48.276;14.242;2023-04-25T09:09:56;8.50;;;3.55;;
39896;SDS011;25567;48.276;14.242;2023-04-25T09:12:25;8.95;;;3.28;;
39896;SDS011;25567;48.276;14.242;2023-04-25T09:15:11;7.80;;;3.03;;
39896;SDS011;25567;48.276;14.242;2023-04-25T09:17:41;4.15;;;2.88;;
39896;SDS011;25567;48.276;14.242;2023-04-25T09:20:11;6.10;;;3.47;;
39896;SDS011;25567;48.276;14.242;2023-04-25T09:22:38;6.68;;;2.90;;
39896;SDS011;25567;48.276;14.242;2023-04-25T09:25:08;6.75;;;3.20;;
39896;SDS011;25567;48.276;14.242;2023-04-25T09:27:35;6.00;;;3.33;;
39896;SDS011;25567;48.276;14.242;2023-04-25T09:30:02;9.18;;;3.45;;
39896;SDS011;25567;48.276;14.242;2023-04-25T09:32:29;6.72;;;2.90;;
39896;SDS011;25567;48.276;14.242;2023-04-25T09:34:56;7.25;;;2.95;;
39896;SDS011;25567;48.276;14.242;2023-04-25T09:37:27;6.25;;;3.22;;
39896;SDS011;25567;48.276;14.242;2023-04-25T09:39:55;7.20;;;3.58;;
39896;SDS011;25567;48.276;14.242;2023-04-25T09:42:23;6.90;;;3.58;;
39896;SDS011;25567;48.276;14.242;2023-04-25T09:44:51;5.82;;;3.45;;
39896;SDS011;25567;48.276;14.242;2023-04-25T09:47:18;8.27;;;3.03;;
39896;SDS011;25567;48.276;14.242;2023-04-25T09:49:47;5.13;;;3.13;;
39896;SDS011;25567;48.276;14.242;2023-04-25T09:52:15;5.60;;;3.20;;
39896;SDS011;25567;48.276;14.242;2023-04-25T09:54:41;9.43;;;3.30;;
39896;SDS011;25567;48.276;14.242;2023-04-25T09:57:10;10.27;;;2.85;;
39896;SDS011;25567;48.276;14.242;2023-04-25T09:59:38;6.35;;;3.25;;
39896;SDS011;25567;48.276;14.242;2023-04-25T10:02:06;8.93;;;2.72;;
39896;SDS011;25567;48.276;14.242;2023-04-25T10:04:34;9.02;;;3.50;;
39896;SDS011;25567;48.276;14.242;2023-04-25T10:07:10;4.32;;;1.88;;
39896;SDS011;25567;48.276;14.242;2023-04-25T10:09:37;8.75;;;2.13;;
39896;SDS011;25567;48.276;14.242;2023-04-25T10:12:06;4.47;;;2.40;;
39896;SDS011;25567;48.276;14.242;2023-04-25T10:14:34;5.75;;;2.83;;
39896;SDS011;25567;48.276;14.242;2023-04-25T10:17:00;7.53;;;2.75;;
39896;SDS011;25567;48.276;14.242;2023-04-25T10:19:28;4.57;;;2.00;;
39896;SDS011;25567;48.276;14.242;2023-04-25T10:21:58;2.42;;;1.40;;
39896;SDS011;25567;48.276;14.242;2023-04-25T10:24:27;1.30;;;1.05;;
39896;SDS011;25567;48.276;14.242;2023-04-25T10:26:54;5.22;;;1.77;;
39896;SDS011;25567;48.276;14.242;2023-04-25T10:29:22;3.40;;;1.10;;
39896;SDS011;25567;48.276;14.242;2023-04-25T10:31:50;1.63;;;0.90;;
39896;SDS011;25567;48.276;14.242;2023-04-25T10:34:17;1.90;;;0.80;;
39896;SDS011;25567;48.276;14.242;2023-04-25T10:36:50;4.97;;;0.85;;
39896;SDS011;25567;48.276;14.242;2023-04-25T10:39:25;2.72;;;1.10;;
39896;SDS011;25567;48.276;14.242;2023-04-25T10:44:19;4.10;;;1.20;;
39896;SDS011;25567;48.276;14.242;2023-04-25T10:46:46;2.97;;;1.60;;
39896;SDS011;25567;48.276;14.242;2023-04-25T10:49:56;4.60;;;1.42;;
39896;SDS011;25567;48.276;14.242;2023-04-25T10:54:42;4.30;;;1.48;;
39896;SDS011;25567;48.276;14.242;2023-04-25T10:57:28;3.17;;;1.10;;
39896;SDS011;25567;48.276;14.242;2023-04-25T11:00:14;2.08;;;1.15;;
39896;SDS011;25567;48.276;14.242;2023-04-25T11:02:57;6.22;;;1.77;;
39896;SDS011;25567;48.276;14.242;2023-04-25T11:05:34;2.92;;;1.30;;
39896;SDS011;25567;48.276;14.242;2023-04-25T11:08:23;4.15;;;1.00;;
39896;SDS011;25567;48.276;14.242;2023-04-25T11:10:53;1.90;;;1.00;;
39896;SDS011;25567;48.276;14.242;2023-04-25T11:13:20;2.10;;;0.70;;
39896;SDS011;25567;48.276;14.242;2023-04-25T11:15:51;1.67;;;1.17;;
39896;SDS011;25567;48.276;14.242;2023-04-25T11:18:32;2.45;;;1.15;;
39896;SDS011;25567;48.276;14.242;2023-04-25T11:21:00;4.78;;;0.80;;
39896;SDS011;25567;48.276;14.242;2023-04-25T11:23:27;3.42;;;0.82;;
39896;SDS011;25567;48.276;14.242;2023-04-25T11:25:53;2.53;;;0.75;;
39896;SDS011;25567;48.276;14.242;2023-04-25T11:28:22;2.15;;;0.80;;
39896;SDS011;25567;48.276;14.242;2023-04-25T11:30:51;1.23;;;0.80;;
39896;SDS011;25567;48.276;14.242;2023-04-25T11:33:18;0.77;;;0.60;;
39896;SDS011;25567;48.276;14.242;2023-04-25T11:35:49;5.30;;;0.60;;
39896;SDS011;25567;48.276;14.242;2023-04-25T11:38:15;0.98;;;0.47;;
39896;SDS011;25567;48.276;14.242;2023-04-25T11:40:42;2.85;;;0.70;;
39896;SDS011;25567;48.276;14.242;2023-04-25T11:43:08;3.60;;;0.80;;
39896;SDS011;25567;48.276;14.242;2023-04-25T11:45:36;1.77;;;0.75;;
39896;SDS011;25567;48.276;14.242;2023-04-25T11:48:03;3.55;;;0.47;;
39896;SDS011;25567;48.276;14.242;2023-04-25T11:50:30;1.75;;;0.70;;
39896;SDS011;25567;48.276;14.242;2023-04-25T11:52:56;2.55;;;1.00;;
39896;SDS011;25567;48.276;14.242;2023-04-25T11:55:23;3.22;;;0.98;;
39896;SDS011;25567;48.276;14.242;2023-04-25T11:57:49;1.40;;;0.98;;
39896;SDS011;25567;48.276;14.242;2023-04-25T12:00:17;3.25;;;0.80;;
39896;SDS011;25567;48.276;14.242;2023-04-25T12:02:46;2.67;;;1.42;;
39896;SDS011;25567;48.276;14.242;2023-04-25T12:05:13;1.65;;;1.05;;
39896;SDS011;25567;48.276;14.242;2023-04-25T12:07:57;1.88;;;0.90;;
39896;SDS011;25567;48.276;14.242;2023-04-25T12:10:24;3.17;;;1.30;;
39896;SDS011;25567;48.276;14.242;2023-04-25T12:12:52;4.40;;;1.60;;
39896;SDS011;25567;48.276;14.242;2023-04-25T12:15:23;3.47;;;1.52;;
39896;SDS011;25567;48.276;14.242;2023-04-25T12:17:51;3.38;;;1.42;;
39896;SDS011;25567;48.276;14.242;2023-04-25T12:20:18;2.72;;;1.58;;
39896;SDS011;25567;48.276;14.242;2023-04-25T12:22:46;4.82;;;1.63;;
39896;SDS011;25567;48.276;14.242;2023-04-25T12:25:14;3.13;;;1.70;;
39896;SDS011;25567;48.276;14.242;2023-04-25T12:28:13;4.60;;;1.90;;
39896;SDS011;25567;48.276;14.242;2023-04-25T12:33:26;3.30;;;1.23;;
39896;SDS011;25567;48.276;14.242;2023-04-25T12:35:53;3.00;;;1.42;;
39896;SDS011;25567;48.276;14.242;2023-04-25T12:38:21;1.58;;;1.08;;
39896;SDS011;25567;48.276;14.242;2023-04-25T12:40:47;3.42;;;1.50;;
39896;SDS011;25567;48.276;14.242;2023-04-25T12:43:14;1.85;;;1.10;;
39896;SDS011;25567;48.276;14.242;2023-04-25T12:45:40;1.95;;;0.80;;
39896;SDS011;25567;48.276;14.242;2023-04-25T12:48:07;3.40;;;1.13;;
39896;SDS011;25567;48.276;14.242;2023-04-25T12:50:33;2.47;;;1.30;;
39896;SDS011;25567;48.276;14.242;2023-04-25T12:53:00;5.22;;;1.77;;
39896;SDS011;25567;48.276;14.242;2023-04-25T12:55:26;4.00;;;1.20;;
39896;SDS011;25567;48.276;14.242;2023-04-25T12:57:54;2.58;;;1.40;;
39896;SDS011;25567;48.276;14.242;2023-04-25T13:00:20;3.90;;;1.13;;
39896;SDS011;25567;48.276;14.242;2023-04-25T13:02:47;3.28;;;1.30;;
39896;SDS011;25567;48.276;14.242;2023-04-25T13:05:14;2.65;;;1.15;;
39896;SDS011;25567;48.276;14.242;2023-04-25T13:07:40;4.78;;;1.30;;
39896;SDS011;25567;48.276;14.242;2023-04-25T13:10:07;6.30;;;1.17;;
39896;SDS011;25567;48.276;14.242;2023-04-25T13:12:33;2.38;;;0.93;;
39896;SDS011;25567;48.276;14.242;2023-04-25T13:15:02;3.10;;;0.90;;
39896;SDS011;25567;48.276;14.242;2023-04-25T13:17:29;4.72;;;0.60;;
39896;SDS011;25567;48.276;14.242;2023-04-25T13:19:56;0.85;;;0.70;;
39896;SDS011;25567;48.276;14.242;2023-04-25T13:22:22;2.22;;;1.30;;
39896;SDS011;25567;48.276;14.242;2023-04-25T13:24:49;2.10;;;0.68;;
39896;SDS011;25567;48.276;14.242;2023-04-25T13:27:15;0.63;;;0.40;;
39896;SDS011;25567;48.276;14.242;2023-04-25T13:29:42;4.72;;;0.65;;
39896;SDS011;25567;48.276;14.242;2023-04-25T13:32:08;1.23;;;0.63;;
39896;SDS011;25567;48.276;14.242;2023-04-25T13:34:35;1.58;;;0.68;;
39896;SDS011;25567;48.276;14.242;2023-04-25T13:37:02;3.40;;;1.05;;
39896;SDS011;25567;48.276;14.242;2023-04-25T13:39:28;2.80;;;1.08;;
39896;SDS011;25567;48.276;14.242;2023-04-25T13:41:55;2.35;;;1.35;;
39896;SDS011;25567;48.276;14.242;2023-04-25T13:44:22;2.50;;;1.40;;
39896;SDS011;25567;48.276;14.242;2023-04-25T13:46:48;3.95;;;1.60;;
39896;SDS011;25567;48.276;14.242;2023-04-25T13:49:15;3.35;;;2.00;;
39896;SDS011;25567;48.276;14.242;2023-04-25T13:51:42;4.70;;;1.65;;
39896;SDS011;25567;48.276;14.242;2023-04-25T13:54:09;5.18;;;1.65;;
39896;SDS011;25567;48.276;14.242;2023-04-25T13:56:35;3.42;;;1.70;;
39896;SDS011;25567;48.276;14.242;2023-04-25T13:59:02;4.35;;;1.52;;
39896;SDS011;25567;48.276;14.242;2023-04-25T14:01:30;3.92;;;1.35;;
39896;SDS011;25567;48.276;14.242;2023-04-25T14:04:01;3.58;;;1.35;;
39896;SDS011;25567;48.276;14.242;2023-04-25T14:06:31;3.53;;;1.73;;
39896;SDS011;25567;48.276;14.242;2023-04-25T14:08:57;3.30;;;1.55;;
39896;SDS011;25567;48.276;14.242;2023-04-25T14:11:26;2.60;;;1.20;;
39896;SDS011;25567;48.276;14.242;2023-04-25T14:13:53;5.88;;;1.58;;
39896;SDS011;25567;48.276;14.242;2023-04-25T14:16:19;2.15;;;1.40;;
39896;SDS011;25567;48.276;14.242;2023-04-25T14:18:46;2.15;;;1.08;;
39896;SDS011;25567;48.276;14.242;2023-04-25T14:21:13;1.75;;;1.25;;
39896;SDS011;25567;48.276;14.242;2023-04-25T14:23:39;1.85;;;1.02;;
39896;SDS011;25567;48.276;14.242;2023-04-25T14:26:06;3.72;;;1.08;;
39896;SDS011;25567;48.276;14.242;2023-04-25T14:28:33;1.05;;;0.85;;
39896;SDS011;25567;48.276;14.242;2023-04-25T14:30:59;1.60;;;0.90;;
39896;SDS011;25567;48.276;14.242;2023-04-25T14:33:27;1.10;;;0.80;;
39896;SDS011;25567;48.276;14.242;2023-04-25T14:35:53;3.25;;;1.10;;
39896;SDS011;25567;48.276;14.242;2023-04-25T14:38:20;1.50;;;0.93;;
39896;SDS011;25567;48.276;14.242;2023-04-25T14:40:49;1.77;;;1.02;;
39896;SDS011;25567;48.276;14.242;2023-04-25T14:43:16;3.38;;;1.20;;